sensor_id;sensor_type;location;lat;lon;timestamp;pressure;altitude;pressure_sealevel;temperature;humidity
64698;BME280;51124;53.394;-6.294;2023-01-15T00:00:19;98729.75;;;16.57;12.38
64698;BME280;51124;53.394;-6.294;2023-01-15T00:02:43;98720.81;;;16.36;12.27
64698;BME280;51124;53.394;-6.294;2023-01-15T00:05:17;98719.95;;;15.66;12.21
64698;BME280;51124;53.394;-6.294;2023-01-15T00:07:51;98722.82;;;16.07;12.17
64698;BME280;51124;53.394;-6.294;2023-01-15T00:10:25;98722.75;;;16.63;12.20
64698;BME280;51124;53.394;-6.294;2023-01-15T00:12:59;98719.79;;;15.87;12.22
64698;BME280;51124;53.394;-6.294;2023-01-15T00:15:33;98719.32;;;16.60;12.12
64698;BME280;51124;53.394;-6.294;2023-01-15T00:18:07;98723.27;;;16.47;12.15
64698;BME280;51124;53.394;-6.294;2023-01-15T00:20:41;98723.57;;;15.90;12.22
64698;BME280;51124;53.394;-6.294;2023-01-15T00:23:15;98711.38;;;16.31;12.22
64698;BME280;51124;53.394;-6.294;2023-01-15T00:25:49;98711.87;;;16.33;12.13
64698;BME280;51124;53.394;-6.294;2023-01-15T00:28:23;98721.89;;;15.94;12.22
64698;BME280;51124;53.394;-6.294;2023-01-15T00:30:57;98716.54;;;15.65;12.32
64698;BME280;51124;53.394;-6.294;2023-01-15T00:33:31;98697.74;;;15.81;12.26
64698;BME280;51124;53.394;-6.294;2023-01-15T00:36:05;98697.73;;;16.11;12.32
64698;BME280;51124;53.394;-6.294;2023-01-15T00:38:39;98688.89;;;15.93;12.23
64698;BME280;51124;53.394;-6.294;2023-01-15T00:41:13;98677.77;;;15.93;12.09
64698;BME280;51124;53.394;-6.294;2023-01-15T00:43:47;98676.12;;;15.92;12.11
64698;BME280;51124;53.394;-6.294;2023-01-15T00:46:21;98670.02;;;15.67;12.23
64698;BME280;51124;53.394;-6.294;2023-01-15T00:48:55;98653.67;;;16.24;11.99
64698;BME280;51124;53.394;-6.294;2023-01-15T00:51:29;98651.15;;;15.90;12.09
64698;BME280;51124;53.394;-6.294;2023-01-15T00:54:04;98640.34;;;16.28;12.13
64698;BME280;51124;53.394;-6.294;2023-01-15T00:56:38;98644.76;;;15.65;12.19
64698;BME280;51124;53.394;-6.294;2023-01-15T00:59:12;98648.13;;;15.45;12.24
64698;BME280;51124;53.394;-6.294;2023-01-15T01:01:46;98641.14;;;15.97;12.14
64698;BME280;51124;53.394;-6.294;2023-01-15T01:04:20;98641.42;;;15.47;12.26
64698;BME280;51124;53.394;-6.294;2023-01-15T01:06:56;98643.10;;;15.27;12.19
64698;BME280;51124;53.394;-6.294;2023-01-15T01:09:21;98641.24;;;15.67;12.16
64698;BME280;51124;53.394;-6.294;2023-01-15T01:11:49;98652.29;;;16.08;12.02
64698;BME280;51124;53.394;-6.294;2023-01-15T01:14:15;98658.38;;;15.76;12.17
64698;BME280;51124;53.394;-6.294;2023-01-15T01:16:41;98669.06;;;15.08;12.23
64698;BME280;51124;53.394;-6.294;2023-01-15T01:19:09;98666.11;;;15.27;12.33
64698;BME280;51124;53.394;-6.294;2023-01-15T01:21:37;98670.01;;;15.98;12.02
64698;BME280;51124;53.394;-6.294;2023-01-15T01:24:04;98669.59;;;15.60;11.87
64698;BME280;51124;53.394;-6.294;2023-01-15T01:26:30;98670.59;;;16.01;11.56
64698;BME280;51124;53.394;-6.294;2023-01-15T01:28:57;98666.25;;;15.85;11.99
64698;BME280;51124;53.394;-6.294;2023-01-15T01:31:23;98659.24;;;16.10;11.91
64698;BME280;51124;53.394;-6.294;2023-01-15T01:33:49;98663.75;;;15.73;12.00
64698;BME280;51124;53.394;-6.294;2023-01-15T01:36:15;98674.79;;;15.53;12.07
64698;BME280;51124;53.394;-6.294;2023-01-15T01:38:41;98668.13;;;15.60;12.03
64698;BME280;51124;53.394;-6.294;2023-01-15T01:41:07;98676.72;;;16.27;11.90
64698;BME280;51124;53.394;-6.294;2023-01-15T01:43:53;98675.58;;;15.68;11.91
64698;BME280;51124;53.394;-6.294;2023-01-15T01:45:59;98674.41;;;15.31;11.93
64698;BME280;51124;53.394;-6.294;2023-01-15T01:48:29;98681.26;;;15.53;12.07
64698;BME280;51124;53.394;-6.294;2023-01-15T01:50:58;98684.31;;;15.38;11.95
64698;BME280;51124;53.394;-6.294;2023-01-15T01:53:28;98677.04;;;15.96;11.98
64698;BME280;51124;53.394;-6.294;2023-01-15T01:55:56;98676.36;;;15.62;11.89
64698;BME280;51124;53.394;-6.294;2023-01-15T01:58:25;98679.75;;;15.68;12.03
64698;BME280;51124;53.394;-6.294;2023-01-15T02:00:53;98671.25;;;15.92;11.90
64698;BME280;51124;53.394;-6.294;2023-01-15T02:03:22;98677.66;;;15.69;12.05
64698;BME280;51124;53.394;-6.294;2023-01-15T02:05:53;98682.13;;;15.35;11.88
64698;BME280;51124;53.394;-6.294;2023-01-15T02:08:20;98683.31;;;15.45;11.90
64698;BME280;51124;53.394;-6.294;2023-01-15T02:10:50;98677.55;;;15.36;11.86
64698;BME280;51124;53.394;-6.294;2023-01-15T02:13:20;98680.94;;;15.86;12.04
64698;BME280;51124;53.394;-6.294;2023-01-15T02:15:53;98669.89;;;15.74;11.89
64698;BME280;51124;53.394;-6.294;2023-01-15T02:18:28;98681.63;;;15.32;11.90
64698;BME280;51124;53.394;-6.294;2023-01-15T02:20:30;98681.26;;;15.73;11.90
64698;BME280;51124;53.394;-6.294;2023-01-15T02:23:11;98675.02;;;15.48;11.89
64698;BME280;51124;53.394;-6.294;2023-01-15T02:25:33;98681.97;;;15.35;11.91
64698;BME280;51124;53.394;-6.294;2023-01-15T02:28:09;98680.00;;;14.88;12.06
64698;BME280;51124;53.394;-6.294;2023-01-15T02:30:32;98667.33;;;15.14;12.08
64698;BME280;51124;53.394;-6.294;2023-01-15T02:33:05;98666.87;;;15.17;11.96
64698;BME280;51124;53.394;-6.294;2023-01-15T02:35:37;98666.62;;;15.49;12.08
64698;BME280;51124;53.394;-6.294;2023-01-15T02:38:06;98675.33;;;15.53;12.03
64698;BME280;51124;53.394;-6.294;2023-01-15T02:40:34;98658.25;;;14.70;12.13
64698;BME280;51124;53.394;-6.294;2023-01-15T02:43:01;98653.04;;;15.55;12.01
64698;BME280;51124;53.394;-6.294;2023-01-15T02:45:31;98671.71;;;15.76;11.99
64698;BME280;51124;53.394;-6.294;2023-01-15T02:48:01;98666.33;;;15.27;11.99
64698;BME280;51124;53.394;-6.294;2023-01-15T02:50:34;98660.21;;;15.17;12.00
64698;BME280;51124;53.394;-6.294;2023-01-15T02:53:03;98653.66;;;15.42;12.03
64698;BME280;51124;53.394;-6.294;2023-01-15T02:55:34;98653.98;;;15.55;12.02
64698;BME280;51124;53.394;-6.294;2023-01-15T02:58:03;98658.12;;;15.85;12.07
64698;BME280;51124;53.394;-6.294;2023-01-15T03:00:34;98650.44;;;15.00;12.04
64698;BME280;51124;53.394;-6.294;2023-01-15T03:03:05;98658.21;;;16.11;11.91
64698;BME280;51124;53.394;-6.294;2023-01-15T03:05:38;98656.85;;;15.18;11.89
64698;BME280;51124;53.394;-6.294;2023-01-15T03:08:07;98665.58;;;15.52;11.92
64698;BME280;51124;53.394;-6.294;2023-01-15T03:10:39;98656.20;;;15.38;12.04
64698;BME280;51124;53.394;-6.294;2023-01-15T03:13:10;98656.97;;;15.41;11.89
64698;BME280;51124;53.394;-6.294;2023-01-15T03:15:44;98653.28;;;15.19;11.91
64698;BME280;51124;53.394;-6.294;2023-01-15T03:18:13;98650.39;;;15.54;11.95
64698;BME280;51124;53.394;-6.294;2023-01-15T03:20:45;98645.71;;;15.52;12.02
64698;BME280;51124;53.394;-6.294;2023-01-15T03:23:16;98649.35;;;14.87;11.93
64698;BME280;51124;53.394;-6.294;2023-01-15T03:25:46;98663.11;;;16.09;11.82
64698;BME280;51124;53.394;-6.294;2023-01-15T03:28:14;98660.02;;;15.69;11.92
64698;BME280;51124;53.394;-6.294;2023-01-15T03:30:42;98655.06;;;14.88;11.89
64698;BME280;51124;53.394;-6.294;2023-01-15T03:33:08;98650.97;;;15.34;11.84
64698;BME280;51124;53.394;-6.294;2023-01-15T03:35:51;98652.42;;;15.04;11.89
64698;BME280;51124;53.394;-6.294;2023-01-15T03:38:08;98652.68;;;15.48;11.87
64698;BME280;51124;53.394;-6.294;2023-01-15T03:40:35;98656.14;;;15.26;11.87
64698;BME280;51124;53.394;-6.294;2023-01-15T03:43:06;98649.76;;;15.86;11.77
64698;BME280;51124;53.394;-6.294;2023-01-15T03:45:34;98650.76;;;15.77;11.85
64698;BME280;51124;53.394;-6.294;2023-01-15T03:48:07;98662.03;;;15.25;11.80
64698;BME280;51124;53.394;-6.294;2023-01-15T03:50:41;98663.68;;;14.50;11.92
64698;BME280;51124;53.394;-6.294;2023-01-15T03:53:12;98659.54;;;15.21;11.86
64698;BME280;51124;53.394;-6.294;2023-01-15T03:55:44;98657.12;;;14.91;11.86
64698;BME280;51124;53.394;-6.294;2023-01-15T03:58:17;98659.23;;;16.17;11.79
64698;BME280;51124;53.394;-6.294;2023-01-15T04:00:47;98651.90;;;15.20;11.83
64698;BME280;51124;53.394;-6.294;2023-01-15T04:03:15;98658.60;;;15.06;11.80
64698;BME280;51124;53.394;-6.294;2023-01-15T04:05:43;98649.25;;;15.79;11.71
64698;BME280;51124;53.394;-6.294;2023-01-15T04:08:11;98646.70;;;15.83;11.84
64698;BME280;51124;53.394;-6.294;2023-01-15T04:10:48;98644.99;;;15.50;11.83
64698;BME280;51124;53.394;-6.294;2023-01-15T04:13:05;98654.83;;;15.38;11.82
64698;BME280;51124;53.394;-6.294;2023-01-15T04:15:30;98658.80;;;15.58;11.78
64698;BME280;51124;53.394;-6.294;2023-01-15T04:17:56;98660.78;;;15.78;11.81
64698;BME280;51124;53.394;-6.294;2023-01-15T04:20:22;98664.14;;;15.41;11.70
64698;BME280;51124;53.394;-6.294;2023-01-15T04:22:48;98669.75;;;15.69;11.74
64698;BME280;51124;53.394;-6.294;2023-01-15T04:25:13;98671.78;;;14.35;11.85
64698;BME280;51124;53.394;-6.294;2023-01-15T04:27:39;98674.93;;;15.88;11.64
64698;BME280;51124;53.394;-6.294;2023-01-15T04:30:05;98672.36;;;15.51;11.77
64698;BME280;51124;53.394;-6.294;2023-01-15T04:32:31;98669.90;;;15.35;11.73
64698;BME280;51124;53.394;-6.294;2023-01-15T04:34:57;98674.92;;;15.58;11.68
64698;BME280;51124;53.394;-6.294;2023-01-15T04:37:23;98680.11;;;15.89;11.67
64698;BME280;51124;53.394;-6.294;2023-01-15T04:39:49;98676.17;;;15.02;11.75
64698;BME280;51124;53.394;-6.294;2023-01-15T04:42:14;98674.67;;;15.39;11.76
64698;BME280;51124;53.394;-6.294;2023-01-15T04:44:40;98672.66;;;15.21;11.68
64698;BME280;51124;53.394;-6.294;2023-01-15T04:47:06;98669.78;;;15.65;11.65
64698;BME280;51124;53.394;-6.294;2023-01-15T04:49:33;98668.54;;;15.34;11.69
64698;BME280;51124;53.394;-6.294;2023-01-15T04:51:59;98671.14;;;15.17;11.65
64698;BME280;51124;53.394;-6.294;2023-01-15T04:54:25;98687.60;;;15.15;11.68
64698;BME280;51124;53.394;-6.294;2023-01-15T04:56:53;98677.56;;;15.35;11.72
64698;BME280;51124;53.394;-6.294;2023-01-15T04:59:20;98686.61;;;15.37;11.74
64698;BME280;51124;53.394;-6.294;2023-01-15T05:01:46;98682.01;;;15.11;11.77
64698;BME280;51124;53.394;-6.294;2023-01-15T05:04:12;98685.80;;;15.23;11.62
64698;BME280;51124;53.394;-6.294;2023-01-15T05:06:38;98678.40;;;15.42;11.64
64698;BME280;51124;53.394;-6.294;2023-01-15T05:09:05;98674.51;;;15.08;11.74
64698;BME280;51124;53.394;-6.294;2023-01-15T05:11:33;98674.38;;;15.83;11.55
64698;BME280;51124;53.394;-6.294;2023-01-15T05:13:59;98683.33;;;15.81;11.66
64698;BME280;51124;53.394;-6.294;2023-01-15T05:16:26;98688.27;;;14.56;11.76
64698;BME280;51124;53.394;-6.294;2023-01-15T05:18:53;98691.60;;;15.80;11.56
64698;BME280;51124;53.394;-6.294;2023-01-15T05:21:21;98694.00;;;15.48;11.63
64698;BME280;51124;53.394;-6.294;2023-01-15T05:23:47;98692.27;;;15.16;11.71
64698;BME280;51124;53.394;-6.294;2023-01-15T05:26:14;98701.99;;;15.15;11.57
64698;BME280;51124;53.394;-6.294;2023-01-15T05:28:40;98698.68;;;15.53;11.57
64698;BME280;51124;53.394;-6.294;2023-01-15T05:31:07;98703.48;;;15.28;11.73
64698;BME280;51124;53.394;-6.294;2023-01-15T05:33:33;98703.12;;;15.56;11.49
64698;BME280;51124;53.394;-6.294;2023-01-15T05:36:02;98708.30;;;15.52;11.53
64698;BME280;51124;53.394;-6.294;2023-01-15T05:38:28;98708.99;;;15.22;11.57
64698;BME280;51124;53.394;-6.294;2023-01-15T05:40:53;98703.96;;;15.13;11.65
64698;BME280;51124;53.394;-6.294;2023-01-15T05:43:19;98709.38;;;15.32;11.67
64698;BME280;51124;53.394;-6.294;2023-01-15T05:45:44;98710.81;;;15.32;11.50
64698;BME280;51124;53.394;-6.294;2023-01-15T05:48:10;98705.15;;;15.79;11.59
64698;BME280;51124;53.394;-6.294;2023-01-15T05:50:36;98708.98;;;15.25;11.60
64698;BME280;51124;53.394;-6.294;2023-01-15T05:53:02;98710.71;;;15.06;11.63
64698;BME280;51124;53.394;-6.294;2023-01-15T05:55:27;98713.53;;;15.27;11.56
64698;BME280;51124;53.394;-6.294;2023-01-15T05:57:53;98719.43;;;15.13;11.63
64698;BME280;51124;53.394;-6.294;2023-01-15T06:00:20;98722.35;;;15.46;11.62
64698;BME280;51124;53.394;-6.294;2023-01-15T06:02:48;98729.50;;;15.85;11.56
64698;BME280;51124;53.394;-6.294;2023-01-15T06:05:14;98743.18;;;14.70;11.58
64698;BME280;51124;53.394;-6.294;2023-01-15T06:07:40;98735.41;;;15.57;11.52
64698;BME280;51124;53.394;-6.294;2023-01-15T06:10:06;98746.48;;;15.21;11.59
64698;BME280;51124;53.394;-6.294;2023-01-15T06:12:32;98754.64;;;15.85;11.57
64698;BME280;51124;53.394;-6.294;2023-01-15T06:14:58;98751.43;;;15.70;11.59
64698;BME280;51124;53.394;-6.294;2023-01-15T06:17:24;98752.75;;;15.45;11.59
64698;BME280;51124;53.394;-6.294;2023-01-15T06:19:49;98760.83;;;15.53;11.60
64698;BME280;51124;53.394;-6.294;2023-01-15T06:22:15;98762.82;;;15.20;11.54
64698;BME280;51124;53.394;-6.294;2023-01-15T06:24:41;98761.98;;;14.95;11.59
64698;BME280;51124;53.394;-6.294;2023-01-15T06:27:06;98770.37;;;14.85;11.54
64698;BME280;51124;53.394;-6.294;2023-01-15T06:29:32;98772.36;;;15.33;11.53
64698;BME280;51124;53.394;-6.294;2023-01-15T06:31:58;98770.51;;;15.59;11.55
64698;BME280;51124;53.394;-6.294;2023-01-15T06:34:23;98770.62;;;15.37;11.51
64698;BME280;51124;53.394;-6.294;2023-01-15T06:36:49;98772.93;;;15.31;11.45
64698;BME280;51124;53.394;-6.294;2023-01-15T06:39:15;98777.90;;;15.33;11.57
64698;BME280;51124;53.394;-6.294;2023-01-15T06:41:40;98785.52;;;14.96;11.55
64698;BME280;51124;53.394;-6.294;2023-01-15T06:44:08;98792.27;;;15.15;11.60
64698;BME280;51124;53.394;-6.294;2023-01-15T06:46:42;98797.85;;;15.59;11.53
64698;BME280;51124;53.394;-6.294;2023-01-15T06:49:08;98800.35;;;15.31;11.59
64698;BME280;51124;53.394;-6.294;2023-01-15T06:51:33;98807.95;;;15.10;11.57
64698;BME280;51124;53.394;-6.294;2023-01-15T06:53:59;98807.28;;;15.16;11.57
64698;BME280;51124;53.394;-6.294;2023-01-15T06:56:25;98814.31;;;15.10;11.57
64698;BME280;51124;53.394;-6.294;2023-01-15T06:58:48;98816.55;;;15.25;11.52
64698;BME280;51124;53.394;-6.294;2023-01-15T07:01:22;98809.91;;;15.15;11.54
64698;BME280;51124;53.394;-6.294;2023-01-15T07:03:56;98815.35;;;15.55;11.60
64698;BME280;51124;53.394;-6.294;2023-01-15T07:06:30;98817.42;;;15.31;11.58
64698;BME280;51124;53.394;-6.294;2023-01-15T07:09:04;98822.58;;;15.31;11.46
64698;BME280;51124;53.394;-6.294;2023-01-15T07:11:38;98824.60;;;15.73;11.55
64698;BME280;51124;53.394;-6.294;2023-01-15T07:14:12;98828.93;;;15.13;11.56
64698;BME280;51124;53.394;-6.294;2023-01-15T07:16:46;98826.65;;;15.04;11.52
64698;BME280;51124;53.394;-6.294;2023-01-15T07:19:21;98835.97;;;15.34;11.47
64698;BME280;51124;53.394;-6.294;2023-01-15T07:21:55;98835.93;;;15.13;11.51
64698;BME280;51124;53.394;-6.294;2023-01-15T07:24:29;98843.89;;;14.83;11.52
64698;BME280;51124;53.394;-6.294;2023-01-15T07:27:03;98850.14;;;15.08;11.52
64698;BME280;51124;53.394;-6.294;2023-01-15T07:29:37;98854.90;;;15.71;11.51
64698;BME280;51124;53.394;-6.294;2023-01-15T07:32:11;98854.67;;;15.29;11.55
64698;BME280;51124;53.394;-6.294;2023-01-15T07:34:44;98860.76;;;15.54;11.46
64698;BME280;51124;53.394;-6.294;2023-01-15T07:37:18;98854.79;;;15.21;11.37
64698;BME280;51124;53.394;-6.294;2023-01-15T07:39:52;98861.91;;;15.39;11.43
64698;BME280;51124;53.394;-6.294;2023-01-15T07:42:26;98863.27;;;15.48;11.49
64698;BME280;51124;53.394;-6.294;2023-01-15T07:45:00;98867.28;;;15.83;11.38
64698;BME280;51124;53.394;-6.294;2023-01-15T07:47:34;98869.37;;;15.09;11.47
64698;BME280;51124;53.394;-6.294;2023-01-15T07:50:11;98876.03;;;15.49;11.43
64698;BME280;51124;53.394;-6.294;2023-01-15T07:52:35;98877.65;;;15.49;11.43
64698;BME280;51124;53.394;-6.294;2023-01-15T07:55:09;98886.46;;;15.48;11.37
64698;BME280;51124;53.394;-6.294;2023-01-15T07:57:43;98882.39;;;15.57;11.40
64698;BME280;51124;53.394;-6.294;2023-01-15T08:00:20;98889.25;;;15.69;11.36
64698;BME280;51124;53.394;-6.294;2023-01-15T08:02:44;98888.71;;;15.76;11.38
64698;BME280;51124;53.394;-6.294;2023-01-15T08:05:18;98892.37;;;14.98;11.40
64698;BME280;51124;53.394;-6.294;2023-01-15T08:07:52;98892.98;;;15.40;11.46
64698;BME280;51124;53.394;-6.294;2023-01-15T08:10:26;98893.99;;;15.35;11.41
64698;BME280;51124;53.394;-6.294;2023-01-15T08:12:59;98893.83;;;15.41;11.36
64698;BME280;51124;53.394;-6.294;2023-01-15T08:15:37;98897.29;;;15.30;11.45
64698;BME280;51124;53.394;-6.294;2023-01-15T08:18:01;98902.78;;;15.88;11.49
64698;BME280;51124;53.394;-6.294;2023-01-15T08:20:35;98906.99;;;14.97;11.51
64698;BME280;51124;53.394;-6.294;2023-01-15T08:23:09;98913.42;;;15.64;11.45
64698;BME280;51124;53.394;-6.294;2023-01-15T08:25:43;98914.26;;;15.13;11.42
64698;BME280;51124;53.394;-6.294;2023-01-15T08:28:17;98921.38;;;15.41;11.51
64698;BME280;51124;53.394;-6.294;2023-01-15T08:30:51;98917.81;;;15.69;11.43
64698;BME280;51124;53.394;-6.294;2023-01-15T08:33:25;98918.66;;;15.52;11.36
64698;BME280;51124;53.394;-6.294;2023-01-15T08:35:59;98922.04;;;15.61;11.39
64698;BME280;51124;53.394;-6.294;2023-01-15T08:38:33;98927.48;;;15.64;11.40
64698;BME280;51124;53.394;-6.294;2023-01-15T08:41:07;98925.84;;;15.63;11.32
64698;BME280;51124;53.394;-6.294;2023-01-15T08:43:41;98933.55;;;15.80;11.38
64698;BME280;51124;53.394;-6.294;2023-01-15T08:46:15;98934.02;;;15.39;11.41
64698;BME280;51124;53.394;-6.294;2023-01-15T08:48:49;98933.82;;;15.41;11.40
64698;BME280;51124;53.394;-6.294;2023-01-15T08:51:23;98930.06;;;15.26;11.42
64698;BME280;51124;53.394;-6.294;2023-01-15T08:53:56;98937.97;;;15.58;11.41
64698;BME280;51124;53.394;-6.294;2023-01-15T08:56:30;98946.82;;;15.57;11.39
64698;BME280;51124;53.394;-6.294;2023-01-15T08:59:05;98959.04;;;15.16;11.36
64698;BME280;51124;53.394;-6.294;2023-01-15T09:01:39;98961.99;;;16.01;11.35
64698;BME280;51124;53.394;-6.294;2023-01-15T09:04:14;98966.01;;;15.49;11.33
64698;BME280;51124;53.394;-6.294;2023-01-15T09:06:48;98963.15;;;15.70;11.35
64698;BME280;51124;53.394;-6.294;2023-01-15T09:09:22;98968.56;;;14.92;11.35
64698;BME280;51124;53.394;-6.294;2023-01-15T09:11:56;98968.57;;;15.10;11.39
64698;BME280;51124;53.394;-6.294;2023-01-15T09:14:29;98973.29;;;15.32;11.43
64698;BME280;51124;53.394;-6.294;2023-01-15T09:17:03;98983.11;;;15.07;11.38
64698;BME280;51124;53.394;-6.294;2023-01-15T09:19:37;98985.94;;;14.96;11.37
64698;BME280;51124;53.394;-6.294;2023-01-15T09:22:11;98990.43;;;15.96;11.33
64698;BME280;51124;53.394;-6.294;2023-01-15T09:24:45;98988.96;;;15.42;11.31
64698;BME280;51124;53.394;-6.294;2023-01-15T09:27:19;98989.23;;;15.21;11.34
64698;BME280;51124;53.394;-6.294;2023-01-15T09:29:53;98985.33;;;15.85;11.36
64698;BME280;51124;53.394;-6.294;2023-01-15T09:32:27;98983.60;;;15.51;11.31
64698;BME280;51124;53.394;-6.294;2023-01-15T09:35:01;98987.52;;;15.51;11.23
64698;BME280;51124;53.394;-6.294;2023-01-15T09:37:35;98991.64;;;15.29;11.23
64698;BME280;51124;53.394;-6.294;2023-01-15T09:40:22;98996.46;;;15.05;11.93
64698;BME280;51124;53.394;-6.294;2023-01-15T09:42:45;98998.65;;;15.27;11.62
64698;BME280;51124;53.394;-6.294;2023-01-15T09:45:17;99006.92;;;15.42;11.43
64698;BME280;51124;53.394;-6.294;2023-01-15T09:47:52;99012.01;;;15.37;11.39
64698;BME280;51124;53.394;-6.294;2023-01-15T09:50:19;99017.91;;;16.08;11.39
64698;BME280;51124;53.394;-6.294;2023-01-15T09:52:51;99022.65;;;15.49;11.46
64698;BME280;51124;53.394;-6.294;2023-01-15T09:55:13;99017.66;;;15.18;11.33
64698;BME280;51124;53.394;-6.294;2023-01-15T09:57:39;99021.18;;;16.04;11.35
64698;BME280;51124;53.394;-6.294;2023-01-15T10:00:05;99024.93;;;15.33;11.41
64698;BME280;51124;53.394;-6.294;2023-01-15T10:02:39;99025.45;;;15.26;11.44
64698;BME280;51124;53.394;-6.294;2023-01-15T10:05:08;99027.09;;;15.29;11.38
64698;BME280;51124;53.394;-6.294;2023-01-15T10:07:38;99030.76;;;15.35;11.35
64698;BME280;51124;53.394;-6.294;2023-01-15T10:10:08;99030.91;;;15.95;11.30
64698;BME280;51124;53.394;-6.294;2023-01-15T10:12:35;99035.30;;;15.50;11.32
64698;BME280;51124;53.394;-6.294;2023-01-15T10:15:08;99033.96;;;15.78;11.31
64698;BME280;51124;53.394;-6.294;2023-01-15T10:17:28;99035.38;;;15.95;11.21
64698;BME280;51124;53.394;-6.294;2023-01-15T10:19:55;99035.33;;;15.52;11.28
64698;BME280;51124;53.394;-6.294;2023-01-15T10:22:31;99034.26;;;15.37;11.35
64698;BME280;51124;53.394;-6.294;2023-01-15T10:24:51;99031.64;;;15.54;11.29
64698;BME280;51124;53.394;-6.294;2023-01-15T10:27:21;99034.63;;;15.83;11.21
64698;BME280;51124;53.394;-6.294;2023-01-15T10:29:50;99037.10;;;15.70;11.21
64698;BME280;51124;53.394;-6.294;2023-01-15T10:32:25;99039.59;;;15.58;11.54
64698;BME280;51124;53.394;-6.294;2023-01-15T10:34:59;99040.72;;;15.57;11.43
64698;BME280;51124;53.394;-6.294;2023-01-15T10:37:22;99041.35;;;15.81;11.27
64698;BME280;51124;53.394;-6.294;2023-01-15T10:39:57;99048.89;;;16.00;11.16
64698;BME280;51124;53.394;-6.294;2023-01-15T10:42:29;99049.14;;;15.59;11.21
64698;BME280;51124;53.394;-6.294;2023-01-15T10:44:55;99049.43;;;15.55;11.11
64698;BME280;51124;53.394;-6.294;2023-01-15T10:47:25;99043.47;;;15.52;11.12
64698;BME280;51124;53.394;-6.294;2023-01-15T10:49:51;99039.49;;;15.48;11.78
64698;BME280;51124;53.394;-6.294;2023-01-15T10:52:29;99042.46;;;15.38;11.15
64698;BME280;51124;53.394;-6.294;2023-01-15T10:55:01;99043.26;;;15.34;10.95
64698;BME280;51124;53.394;-6.294;2023-01-15T10:57:37;99047.83;;;15.21;10.83
64698;BME280;51124;53.394;-6.294;2023-01-15T10:59:56;99051.73;;;14.94;10.89
64698;BME280;51124;53.394;-6.294;2023-01-15T11:02:25;99053.74;;;15.41;10.85
64698;BME280;51124;53.394;-6.294;2023-01-15T11:04:50;99053.62;;;14.85;10.78
64698;BME280;51124;53.394;-6.294;2023-01-15T11:07:31;99055.72;;;15.05;10.78
64698;BME280;51124;53.394;-6.294;2023-01-15T11:10:02;99057.85;;;15.23;10.74
64698;BME280;51124;53.394;-6.294;2023-01-15T11:12:28;99057.04;;;15.42;10.73
64698;BME280;51124;53.394;-6.294;2023-01-15T11:14:52;99056.31;;;15.34;10.68
64698;BME280;51124;53.394;-6.294;2023-01-15T11:17:29;99056.05;;;15.28;10.66
64698;BME280;51124;53.394;-6.294;2023-01-15T11:19:54;99055.96;;;15.02;10.67
64698;BME280;51124;53.394;-6.294;2023-01-15T11:22:28;99058.60;;;15.31;10.67
64698;BME280;51124;53.394;-6.294;2023-01-15T11:25:01;99059.84;;;14.80;10.66
64698;BME280;51124;53.394;-6.294;2023-01-15T11:27:36;99061.00;;;15.56;10.54
64698;BME280;51124;53.394;-6.294;2023-01-15T11:30:26;99058.29;;;15.51;10.58
64698;BME280;51124;53.394;-6.294;2023-01-15T11:32:40;99055.42;;;15.24;10.61
64698;BME280;51124;53.394;-6.294;2023-01-15T11:35:17;99058.68;;;14.99;10.54
64698;BME280;51124;53.394;-6.294;2023-01-15T11:37:41;99054.87;;;15.36;10.67
64698;BME280;51124;53.394;-6.294;2023-01-15T11:40:17;99048.65;;;15.19;10.68
64698;BME280;51124;53.394;-6.294;2023-01-15T11:42:45;99044.63;;;14.98;10.73
64698;BME280;51124;53.394;-6.294;2023-01-15T11:45:14;99036.73;;;15.38;10.63
64698;BME280;51124;53.394;-6.294;2023-01-15T11:47:38;99035.15;;;15.33;10.61
64698;BME280;51124;53.394;-6.294;2023-01-15T11:50:16;99033.80;;;14.70;10.69
64698;BME280;51124;53.394;-6.294;2023-01-15T11:52:44;99033.84;;;15.20;10.67
64698;BME280;51124;53.394;-6.294;2023-01-15T11:55:10;99029.25;;;15.50;10.67
64698;BME280;51124;53.394;-6.294;2023-01-15T11:57:36;99030.75;;;15.14;10.57
64698;BME280;51124;53.394;-6.294;2023-01-15T12:00:02;99032.94;;;15.19;10.58
64698;BME280;51124;53.394;-6.294;2023-01-15T12:02:31;99033.79;;;14.76;10.64
64698;BME280;51124;53.394;-6.294;2023-01-15T12:04:59;99037.53;;;15.47;10.60
64698;BME280;51124;53.394;-6.294;2023-01-15T12:07:23;99037.17;;;15.37;10.61
64698;BME280;51124;53.394;-6.294;2023-01-15T12:10:08;99037.07;;;15.13;10.72
64698;BME280;51124;53.394;-6.294;2023-01-15T12:12:35;99036.33;;;15.05;10.63
64698;BME280;51124;53.394;-6.294;2023-01-15T12:15:03;99032.68;;;15.04;10.58
64698;BME280;51124;53.394;-6.294;2023-01-15T12:17:31;99032.63;;;15.39;10.58
64698;BME280;51124;53.394;-6.294;2023-01-15T12:19:56;99029.89;;;14.91;10.69
64698;BME280;51124;53.394;-6.294;2023-01-15T12:22:35;99036.17;;;14.29;10.74
64698;BME280;51124;53.394;-6.294;2023-01-15T12:25:03;99031.35;;;14.67;10.70
64698;BME280;51124;53.394;-6.294;2023-01-15T12:27:28;99024.61;;;14.89;10.66
64698;BME280;51124;53.394;-6.294;2023-01-15T12:29:48;99020.95;;;14.99;10.66
64698;BME280;51124;53.394;-6.294;2023-01-15T12:32:16;99015.55;;;15.09;10.70
64698;BME280;51124;53.394;-6.294;2023-01-15T12:34:45;99013.85;;;14.53;10.66
64698;BME280;51124;53.394;-6.294;2023-01-15T12:37:13;99008.89;;;15.05;10.58
64698;BME280;51124;53.394;-6.294;2023-01-15T12:39:44;99014.03;;;14.90;10.66
64698;BME280;51124;53.394;-6.294;2023-01-15T12:42:14;99014.98;;;15.09;10.68
64698;BME280;51124;53.394;-6.294;2023-01-15T12:44:43;99012.92;;;15.36;10.50
64698;BME280;51124;53.394;-6.294;2023-01-15T12:47:13;99007.49;;;15.38;10.64
64698;BME280;51124;53.394;-6.294;2023-01-15T12:49:43;99001.82;;;14.68;10.74
64698;BME280;51124;53.394;-6.294;2023-01-15T12:52:10;99000.69;;;14.98;10.71
64698;BME280;51124;53.394;-6.294;2023-01-15T12:54:39;99001.02;;;15.41;13.92
64698;BME280;51124;53.394;-6.294;2023-01-15T12:57:12;99001.57;;;14.94;13.38
64698;BME280;51124;53.394;-6.294;2023-01-15T12:59:45;99000.04;;;15.55;12.92
64698;BME280;51124;53.394;-6.294;2023-01-15T13:02:15;98995.52;;;15.65;12.49